Time;durP1;ratioP1;P1;durP2;ratioP2;P2;SDS_P1;SDS_P2;PMS_P1;PMS_P2;Temp;Humidity;BMP_temperature;BMP_pressure;BME280_temperature;BME280_humidity;BME280_pressure;Samples;Min_cycle;Max_cycle;Signal;HPM_P1;HPM_P2
2023/04/22 06:57:44;;;;;;;13.67;6.97;;;12.60;99.90;;;;;;4021506;23;20317;-70
2023/04/22 07:00:12;;;;;;;11.70;6.60;;;12.70;99.90;;;;;;4982854;28;20298;-69
2023/04/22 07:02:39;;;;;;;11.17;6.70;;;12.90;99.90;;;;;;4995386;28;20268;-69
2023/04/22 07:05:06;;;;;;;11.73;7.00;;;12.40;99.90;;;;;;4994747;28;20226;-69
2023/04/22 07:07:33;;;;;;;11.13;6.50;;;12.10;99.90;;;;;;4994193;28;20302;-71
2023/04/22 07:10:00;;;;;;;13.10;6.80;;;11.90;99.90;;;;;;4994359;28;20202;-72
2023/04/22 07:12:27;;;;;;;10.80;6.23;;;11.90;99.90;;;;;;4994303;28;20214;-69
2023/04/22 07:14:56;;;;;;;11.80;6.00;;;11.90;99.90;;;;;;4995291;28;20223;-71
2023/04/22 07:17:22;;;;;;;13.53;6.77;;;12.00;99.90;;;;;;4994273;28;20210;-70
2023/04/22 07:19:49;;;;;;;11.57;6.53;;;12.30;99.90;;;;;;4994432;28;20234;-70
2023/04/22 07:22:16;;;;;;;12.97;7.03;;;12.80;99.90;;;;;;4994875;28;20250;-72
2023/04/22 07:24:43;;;;;;;15.07;6.83;;;13.10;99.90;;;;;;4994918;28;20376;-74
2023/04/22 07:27:10;;;;;;;11.27;6.67;;;13.50;99.90;;;;;;4993702;28;20229;-71
2023/04/22 07:29:37;;;;;;;10.23;5.93;;;13.20;99.90;;;;;;4993925;28;20246;-71
2023/04/22 07:32:06;;;;;;;11.73;6.63;;;13.10;99.90;;;;;;4994983;28;20210;-71
2023/04/22 07:34:33;;;;;;;10.33;6.07;;;13.20;99.90;;;;;;4994299;28;20231;-71
2023/04/22 07:37:00;;;;;;;11.97;6.70;;;13.30;99.90;;;;;;4994433;28;20245;-71
2023/04/22 07:39:27;;;;;;;11.53;6.87;;;13.30;99.90;;;;;;4993758;28;20233;-70
2023/04/22 07:41:56;;;;;;;10.80;6.00;;;13.40;99.90;;;;;;4994785;28;20273;-72
2023/04/22 07:44:23;;;;;;;10.13;6.03;;;12.90;99.90;;;;;;4994084;28;20246;-71
2023/04/22 07:46:50;;;;;;;10.33;6.37;;;12.50;99.90;;;;;;4993224;28;20294;-70
2023/04/22 07:49:18;;;;;;;12.20;5.77;;;12.20;99.90;;;;;;4992584;28;20710;-71
2023/04/22 07:51:45;;;;;;;9.87;5.63;;;12.00;99.90;;;;;;4993421;28;20199;-71
2023/04/22 07:54:13;;;;;;;11.47;6.07;;;12.50;99.90;;;;;;4993169;28;20305;-69
2023/04/22 07:56:39;;;;;;;11.60;6.23;;;13.00;99.90;;;;;;4992987;28;20245;-70
2023/04/22 07:59:07;;;;;;;11.33;6.27;;;13.20;99.90;;;;;;4992844;28;20221;-71
2023/04/22 08:01:34;;;;;;;10.77;5.70;;;13.30;99.90;;;;;;4992726;28;20293;-71
2023/04/22 08:04:01;;;;;;;9.17;5.60;;;13.40;99.90;;;;;;4994043;28;20606;-71
2023/04/22 08:06:29;;;;;;;7.47;4.77;;;13.50;99.90;;;;;;4994375;28;20234;-72
2023/04/22 08:08:56;;;;;;;7.73;5.40;;;13.70;99.90;;;;;;4994050;28;20674;-72
2023/04/22 08:11:23;;;;;;;8.93;4.87;;;14.40;99.90;;;;;;4994240;28;20214;-72
2023/04/22 08:13:50;;;;;;;7.60;4.50;;;15.00;99.90;;;;;;4994295;28;20664;-72
2023/04/22 08:16:17;;;;;;;8.43;5.27;;;15.60;99.90;;;;;;4994119;28;20667;-72
2023/04/22 08:18:44;;;;;;;5.97;4.40;;;16.70;99.90;;;;;;4993970;28;20638;-72
2023/04/22 08:21:11;;;;;;;7.80;5.20;;;17.50;99.90;;;;;;4994147;28;20202;-72
2023/04/22 08:23:39;;;;;;;6.07;3.97;;;18.80;99.90;;;;;;4994605;28;20238;-72
2023/04/22 08:26:07;;;;;;;7.03;4.07;;;19.00;99.90;;;;;;4994397;28;20290;-72
2023/04/22 08:28:34;;;;;;;5.45;3.78;;;19.00;99.90;;;;;;4994052;28;20662;-72
2023/04/22 08:31:01;;;;;;;6.00;4.22;;;18.60;99.90;;;;;;4994134;28;20745;-72
2023/04/22 08:33:28;;;;;;;5.95;3.92;;;18.70;99.90;;;;;;4994383;28;20214;-72
2023/04/22 08:35:55;;;;;;;5.85;3.70;;;18.80;99.90;;;;;;4993968;28;20310;-73
2023/04/22 08:38:22;;;;;;;4.90;3.55;;;18.20;99.90;;;;;;4993823;28;20252;-73
2023/04/22 08:40:51;;;;;;;5.85;3.67;;;18.10;99.90;;;;;;4993934;28;20301;-73
2023/04/22 08:43:18;;;;;;;5.75;3.10;;;18.00;99.90;;;;;;4993821;28;20326;-72
2023/04/22 08:45:45;;;;;;;5.40;2.55;;;18.10;99.90;;;;;;4994292;28;20262;-73
2023/04/22 08:48:13;;;;;;;4.35;3.05;;;18.40;99.90;;;;;;4994030;28;20213;-72
2023/04/22 08:50:41;;;;;;;3.67;2.65;;;18.20;99.90;;;;;;4994471;28;20242;-72
2023/04/22 08:53:08;;;;;;;4.35;2.78;;;17.70;99.90;;;;;;4996089;28;20270;-72
2023/04/22 08:55:36;;;;;;;4.03;2.83;;;17.00;99.90;;;;;;4995945;28;20231;-71
2023/04/22 08:58:05;;;;;;;4.43;3.10;;;17.20;99.90;;;;;;4994863;28;20725;-72
2023/04/22 09:00:33;;;;;;;4.97;3.28;;;16.90;99.90;;;;;;4994535;28;20213;-72
2023/04/22 09:03:02;;;;;;;4.57;2.70;;;16.70;99.90;;;;;;4994200;28;20206;-72
2023/04/22 09:05:32;;;;;;;5.15;3.15;;;17.20;99.90;;;;;;4994169;28;20230;-72
2023/04/22 09:07:59;;;;;;;4.88;2.83;;;17.20;99.90;;;;;;4994013;28;20663;-71
2023/04/22 09:10:27;;;;;;;5.47;3.40;;;17.30;99.90;;;;;;4993859;28;20353;-72
2023/04/22 09:12:55;;;;;;;5.13;2.83;;;17.30;99.90;;;;;;4996631;28;20210;-73
2023/04/22 09:15:23;;;;;;;4.40;3.10;;;17.00;99.90;;;;;;4994242;28;20309;-73
2023/04/22 09:17:51;;;;;;;5.90;3.87;;;17.00;99.90;;;;;;4994084;28;20301;-72
2023/04/22 09:20:19;;;;;;;5.22;3.70;;;16.80;99.90;;;;;;4993666;28;20246;-72
2023/04/22 09:22:48;;;;;;;4.83;3.07;;;16.70;99.90;;;;;;4994430;28;20206;-73
2023/04/22 09:25:17;;;;;;;6.20;3.73;;;16.70;99.90;;;;;;4993830;28;20649;-74
2023/04/22 09:27:47;;;;;;;4.43;3.13;;;16.90;99.90;;;;;;4993962;28;20241;-72
2023/04/22 09:30:14;;;;;;;5.00;3.17;;;17.00;99.90;;;;;;4993935;28;20238;-72
2023/04/22 09:32:43;;;;;;;6.23;3.50;;;17.10;99.90;;;;;;4993909;28;20264;-72
2023/04/22 09:35:10;;;;;;;4.47;3.50;;;17.00;99.90;;;;;;4993389;28;20262;-72
2023/04/22 09:37:36;;;;;;;5.70;3.37;;;16.60;99.90;;;;;;4993862;28;20628;-72
2023/04/22 09:40:04;;;;;;;7.40;3.60;;;16.20;99.90;;;;;;4993809;28;20293;-72
2023/04/22 09:42:31;;;;;;;5.10;3.57;;;15.90;99.90;;;;;;4993411;28;20241;-72
2023/04/22 09:44:59;;;;;;;4.97;3.40;;;15.90;99.90;;;;;;4993070;28;20273;-72
2023/04/22 09:47:26;;;;;;;4.97;3.20;;;15.90;99.90;;;;;;4993372;28;20306;-73
2023/04/22 09:49:55;;;;;;;6.77;3.60;;;15.90;99.90;;;;;;4993161;28;20544;-72
2023/04/22 09:52:25;;;;;;;6.53;3.60;;;16.00;99.90;;;;;;4989315;28;20602;-75
2023/04/22 09:54:53;;;;;;;6.33;4.03;;;15.90;99.90;;;;;;4993425;28;20233;-73
2023/04/22 09:57:20;;;;;;;6.33;4.13;;;15.90;99.90;;;;;;4993226;28;20221;-74
2023/04/22 09:59:50;;;;;;;5.07;3.30;;;15.80;99.90;;;;;;4993094;28;20273;-74
2023/04/22 10:02:17;;;;;;;5.13;3.43;;;15.70;99.90;;;;;;4992963;28;20210;-74
2023/04/22 10:04:44;;;;;;;5.93;3.87;;;15.50;99.90;;;;;;4993147;28;20296;-74
2023/04/22 10:07:14;;;;;;;8.43;3.90;;;15.40;99.90;;;;;;4993295;28;20206;-74
2023/04/22 10:09:41;;;;;;;5.30;3.50;;;15.30;99.90;;;;;;4993120;28;20229;-74
2023/04/22 10:12:08;;;;;;;8.23;3.70;;;15.00;99.90;;;;;;4992515;28;20203;-72
2023/04/22 10:14:35;;;;;;;6.37;3.90;;;14.90;99.90;;;;;;4992448;28;20258;-72
2023/04/22 10:17:03;;;;;;;5.83;3.73;;;14.80;99.90;;;;;;4992996;28;20238;-71
2023/04/22 10:19:32;;;;;;;7.97;4.10;;;14.80;99.90;;;;;;4992737;28;20552;-72
2023/04/22 10:22:03;;;;;;;6.70;4.20;;;14.90;99.90;;;;;;4995754;28;20218;-72
2023/04/22 10:24:35;;;;;;;11.43;6.70;;;14.80;99.90;;;;;;4996562;28;20329;-73
2023/04/22 10:27:07;;;;;;;10.80;6.93;;;14.80;99.90;;;;;;4996314;28;20207;-74
2023/04/22 10:29:37;;;;;;;7.63;4.27;;;14.90;99.90;;;;;;4996270;28;20639;-75
2023/04/22 10:32:06;;;;;;;7.63;4.40;;;14.90;99.90;;;;;;4996189;28;20214;-73
2023/04/22 10:34:33;;;;;;;8.87;4.73;;;14.80;99.90;;;;;;4996480;28;20234;-76
2023/04/22 10:37:05;;;;;;;6.30;4.37;;;14.90;99.90;;;;;;4995519;28;20749;-73
2023/04/22 10:39:33;;;;;;;7.67;5.07;;;15.00;99.90;;;;;;4996236;28;20610;-73
2023/04/22 10:42:10;;;;;;;7.37;4.50;;;15.20;99.90;;;;;;4996399;28;20302;-73
2023/04/22 10:44:50;;;;;;;9.13;4.67;;;15.20;99.90;;;;;;4995945;28;20244;-72
2023/04/22 10:47:29;;;;;;;7.40;4.63;;;15.20;99.90;;;;;;4995832;28;20285;-73
2023/04/22 10:50:25;;;;;;;6.97;4.30;;;15.20;99.90;;;;;;4995806;28;20214;-73
2023/04/22 10:52:55;;;;;;;8.10;4.47;;;15.30;99.90;;;;;;4951075;28;20310;-72
2023/04/22 10:55:24;;;;;;;6.90;4.47;;;15.20;99.90;;;;;;4995640;28;20280;-73
2023/04/22 10:57:52;;;;;;;6.67;4.23;;;15.20;99.90;;;;;;4995678;28;20281;-73
2023/04/22 11:00:29;;;;;;;6.53;4.20;;;15.20;99.90;;;;;;4996238;28;20293;-75
2023/04/22 11:03:09;;;;;;;6.63;4.10;;;15.20;99.90;;;;;;4995574;28;20216;-76
2023/04/22 11:05:37;;;;;;;7.93;3.90;;;15.10;99.90;;;;;;4995682;28;20269;-74
2023/04/22 11:08:06;;;;;;;6.77;3.50;;;15.00;99.90;;;;;;4996052;28;20260;-73
2023/04/22 11:10:42;;;;;;;6.30;3.73;;;14.80;99.90;;;;;;4995760;28;20718;-74
2023/04/22 11:13:12;;;;;;;7.07;3.57;;;14.80;99.90;;;;;;4994853;28;20233;-76
2023/04/22 11:15:41;;;;;;;6.70;3.63;;;15.00;99.90;;;;;;4995086;28;20230;-74
2023/04/22 11:18:14;;;;;;;4.77;2.83;;;15.10;99.90;;;;;;4995032;28;20261;-72
2023/04/22 11:20:41;;;;;;;4.97;3.30;;;15.10;99.90;;;;;;4995479;28;20212;-73
2023/04/22 11:23:08;;;;;;;5.23;2.47;;;15.00;99.90;;;;;;4995219;28;20298;-73
2023/04/22 11:25:36;;;;;;;3.83;2.83;;;14.90;99.90;;;;;;4994819;28;20320;-73
2023/04/22 11:28:03;;;;;;;3.57;2.67;;;14.80;99.90;;;;;;4995158;28;20222;-75
2023/04/22 11:30:30;;;;;;;4.63;3.17;;;14.70;99.90;;;;;;4994641;28;20686;-73
2023/04/22 11:33:00;;;;;;;4.43;3.20;;;14.80;99.90;;;;;;4993890;28;20293;-73
2023/04/22 11:35:29;;;;;;;5.00;2.70;;;14.80;99.90;;;;;;4995167;28;20261;-73
2023/04/22 11:37:58;;;;;;;5.03;3.17;;;14.60;99.90;;;;;;4994910;28;20645;-73
2023/04/22 11:40:29;;;;;;;4.57;3.00;;;14.40;99.90;;;;;;4994504;28;20249;-73
2023/04/22 11:42:58;;;;;;;6.10;2.97;;;14.30;99.90;;;;;;4995165;28;20313;-73
2023/04/22 11:45:26;;;;;;;4.83;2.93;;;14.30;99.90;;;;;;4994391;28;20675;-73
2023/04/22 11:47:54;;;;;;;4.20;2.87;;;14.20;99.90;;;;;;4994907;28;20689;-73
2023/04/22 11:50:23;;;;;;;4.83;2.63;;;14.20;99.90;;;;;;4994814;28;20219;-73
2023/04/22 11:52:52;;;;;;;4.63;2.80;;;14.10;99.90;;;;;;4994332;28;20634;-73
2023/04/22 11:55:22;;;;;;;5.50;2.70;;;14.10;99.90;;;;;;4994802;28;20659;-74
2023/04/22 11:57:54;;;;;;;4.07;3.00;;;14.20;99.90;;;;;;4994688;28;20304;-74
2023/04/22 12:00:24;;;;;;;5.47;2.73;;;14.10;99.90;;;;;;4994300;28;20214;-74
2023/04/22 12:02:59;;;;;;;3.83;2.80;;;14.00;99.90;;;;;;4994879;28;20211;-73
2023/04/22 12:05:37;;;;;;;3.47;2.57;;;13.90;99.90;;;;;;4994121;28;20603;-74
2023/04/22 12:08:08;;;;;;;3.83;2.53;;;13.90;99.90;;;;;;4994200;28;20682;-73
2023/04/22 12:10:39;;;;;;;4.07;2.50;;;13.90;99.90;;;;;;4994247;28;20210;-73
2023/04/22 12:13:07;;;;;;;3.70;2.23;;;13.80;99.90;;;;;;4993899;28;20217;-73
2023/04/22 12:15:42;;;;;;;4.57;2.17;;;13.70;99.90;;;;;;4994060;28;20273;-73
2023/04/22 12:18:11;;;;;;;4.93;2.20;;;13.60;99.90;;;;;;4994317;28;20209;-73
2023/04/22 12:20:39;;;;;;;3.60;2.40;;;13.60;99.90;;;;;;4994597;28;20215;-72
2023/04/22 12:23:11;;;;;;;3.63;2.30;;;13.70;99.90;;;;;;4992896;28;20237;-71
2023/04/22 12:25:38;;;;;;;3.83;2.40;;;13.80;99.90;;;;;;4994013;28;20307;-73
2023/04/22 12:28:05;;;;;;;2.57;2.00;;;13.90;99.90;;;;;;4994084;28;20750;-71
2023/04/22 12:30:32;;;;;;;2.40;2.07;;;14.00;99.90;;;;;;4993817;28;20245;-74
2023/04/22 12:33:00;;;;;;;3.63;2.50;;;14.10;99.90;;;;;;4994054;28;20293;-72
2023/04/22 12:35:28;;;;;;;4.67;2.37;;;14.20;99.90;;;;;;4993653;28;20710;-72
2023/04/22 12:37:55;;;;;;;3.07;2.17;;;14.40;99.90;;;;;;4994307;28;20292;-72
2023/04/22 12:40:22;;;;;;;4.67;2.40;;;14.50;99.90;;;;;;4993578;28;20241;-72
2023/04/22 12:42:49;;;;;;;3.70;2.37;;;14.60;99.90;;;;;;4993141;28;20206;-70
2023/04/22 12:45:16;;;;;;;3.63;2.20;;;14.50;99.90;;;;;;4993123;28;20278;-72
2023/04/22 12:47:43;;;;;;;3.40;2.17;;;14.70;99.90;;;;;;4993854;28;20571;-72
2023/04/22 12:50:12;;;;;;;2.90;2.50;;;15.00;99.90;;;;;;4993979;28;20210;-73
2023/04/22 12:52:39;;;;;;;4.10;2.70;;;15.10;99.90;;;;;;4993974;28;20230;-73
2023/04/22 12:55:06;;;;;;;2.90;2.00;;;15.30;99.90;;;;;;4994672;28;20257;-72
2023/04/22 12:57:34;;;;;;;3.00;2.17;;;15.40;99.90;;;;;;4993913;28;20272;-70
2023/04/22 13:00:00;;;;;;;3.03;2.07;;;15.30;99.90;;;;;;4993774;28;20640;-73
2023/04/22 13:02:27;;;;;;;2.40;1.93;;;15.30;99.90;;;;;;4993683;28;20234;-73
2023/04/22 13:04:54;;;;;;;2.93;1.90;;;15.50;99.90;;;;;;4993623;28;20760;-72
2023/04/22 13:07:22;;;;;;;2.97;1.80;;;15.40;99.90;;;;;;4993549;28;20630;-74
2023/04/22 13:09:50;;;;;;;2.43;1.77;;;15.30;99.90;;;;;;4993136;28;20766;-72
2023/04/22 13:12:17;;;;;;;2.90;2.20;;;15.30;99.90;;;;;;4993135;28;20217;-74
2023/04/22 13:14:43;;;;;;;3.10;1.90;;;15.20;99.90;;;;;;4993486;28;20280;-72
2023/04/22 13:17:11;;;;;;;3.63;1.70;;;15.20;99.90;;;;;;4993434;28;20249;-73
2023/04/22 13:19:37;;;;;;;2.80;2.27;;;15.20;99.90;;;;;;4993666;28;20207;-72
2023/04/22 13:22:04;;;;;;;3.17;1.97;;;15.30;99.90;;;;;;4992898;28;20290;-73
2023/04/22 13:24:33;;;;;;;2.93;2.30;;;15.40;99.90;;;;;;4992644;28;20305;-71
2023/04/22 13:27:00;;;;;;;2.37;1.77;;;15.50;99.90;;;;;;4992987;28;20257;-74
2023/04/22 13:29:27;;;;;;;3.07;1.80;;;15.40;99.90;;;;;;4993280;28;20683;-71
2023/04/22 13:31:54;;;;;;;2.90;1.80;;;15.40;99.90;;;;;;4993520;28;20234;-71
2023/04/22 13:34:21;;;;;;;3.57;2.00;;;15.40;99.90;;;;;;4993445;28;20321;-70
2023/04/22 13:36:47;;;;;;;2.67;2.00;;;15.20;99.90;;;;;;4992926;28;20709;-72
2023/04/22 13:39:14;;;;;;;3.70;2.40;;;15.30;99.90;;;;;;4992940;28;20211;-74
2023/04/22 13:41:43;;;;;;;4.77;2.73;;;15.30;99.90;;;;;;4992843;28;20269;-73
2023/04/22 13:44:11;;;;;;;4.13;2.90;;;15.20;99.90;;;;;;4993086;28;20672;-72
2023/04/22 13:46:38;;;;;;;5.17;2.97;;;15.20;99.90;;;;;;4992963;28;20290;-72
2023/04/22 13:49:05;;;;;;;5.07;3.40;;;15.30;99.90;;;;;;4993381;28;20209;-73
2023/04/22 13:51:32;;;;;;;7.00;3.80;;;15.40;99.90;;;;;;4993084;28;20242;-72
2023/04/22 13:54:00;;;;;;;3.57;2.97;;;15.40;99.90;;;;;;4993115;28;20322;-75
2023/04/22 13:56:27;;;;;;;5.97;3.80;;;15.40;99.90;;;;;;4995377;28;20246;-70
2023/04/22 13:58:55;;;;;;;4.43;3.13;;;15.50;99.90;;;;;;4996821;28;20298;-71
2023/04/22 14:01:23;;;;;;;3.80;3.27;;;15.50;99.90;;;;;;4996647;28;20290;-70
2023/04/22 14:03:51;;;;;;;5.00;3.53;;;15.50;99.90;;;;;;4996752;28;20297;-71
2023/04/22 14:06:18;;;;;;;8.70;5.53;;;15.50;99.90;;;;;;4996093;28;20272;-70
2023/04/22 14:08:45;;;;;;;14.53;7.63;;;15.50;99.90;;;;;;4996288;28;20237;-70
2023/04/22 14:11:12;;;;;;;13.63;7.93;;;15.40;99.90;;;;;;4996509;28;20628;-73
2023/04/22 14:13:40;;;;;;;14.93;9.23;;;15.40;99.90;;;;;;4996043;28;20290;-72
2023/04/22 14:16:10;;;;;;;12.20;8.40;;;15.40;99.90;;;;;;4996648;28;20210;-71
2023/04/22 14:18:39;;;;;;;13.07;8.37;;;15.20;99.90;;;;;;4996557;28;20217;-71
2023/04/22 14:21:08;;;;;;;14.23;8.40;;;14.90;99.90;;;;;;4996028;28;20269;-74
2023/04/22 14:23:35;;;;;;;14.10;8.17;;;14.70;99.90;;;;;;4995650;28;20607;-72
2023/04/22 14:26:02;;;;;;;16.10;9.10;;;14.70;99.90;;;;;;4996390;28;20330;-69
2023/04/22 14:28:29;;;;;;;14.73;8.23;;;14.60;99.90;;;;;;4996266;28;20210;-70
2023/04/22 14:30:56;;;;;;;14.73;7.20;;;14.40;99.90;;;;;;4996437;28;20246;-71
2023/04/22 14:33:25;;;;;;;12.47;7.20;;;14.20;99.90;;;;;;4992555;28;20206;-69
2023/04/22 14:35:52;;;;;;;11.93;6.50;;;14.40;99.90;;;;;;4996714;28;20318;-70
2023/04/22 14:38:19;;;;;;;11.23;6.80;;;14.40;99.90;;;;;;4996486;28;20206;-70
2023/04/22 14:40:47;;;;;;;12.23;6.40;;;14.50;99.90;;;;;;4996417;28;20659;-70
2023/04/22 14:43:15;;;;;;;8.93;5.83;;;14.30;99.90;;;;;;4996037;28;20234;-70
2023/04/22 14:45:42;;;;;;;9.63;5.67;;;14.00;99.90;;;;;;4996134;28;20277;-71
2023/04/22 14:48:10;;;;;;;8.13;5.50;;;14.10;99.90;;;;;;4996391;28;20238;-71
2023/04/22 14:50:38;;;;;;;8.87;5.93;;;14.10;99.90;;;;;;4996382;28;20261;-72
2023/04/22 14:53:05;;;;;;;9.17;5.53;;;14.00;99.90;;;;;;4995922;28;20228;-70
2023/04/22 14:55:34;;;;;;;11.17;6.40;;;14.10;99.90;;;;;;4995619;28;20284;-71
2023/04/22 14:58:01;;;;;;;11.60;6.33;;;14.00;99.90;;;;;;4995866;28;20214;-70
2023/04/22 15:00:28;;;;;;;9.87;5.83;;;13.90;99.90;;;;;;4995577;28;20616;-70
2023/04/22 15:02:56;;;;;;;11.83;7.93;;;13.90;99.90;;;;;;4995707;28;20273;-69
2023/04/22 15:05:23;;;;;;;14.83;7.20;;;13.90;99.90;;;;;;4995267;28;20631;-70
2023/04/22 15:07:52;;;;;;;9.90;6.03;;;13.70;99.90;;;;;;4995491;28;20297;-70
2023/04/22 15:10:19;;;;;;;19.23;9.30;;;13.50;99.90;;;;;;4995747;28;20206;-71
2023/04/22 15:12:46;;;;;;;11.47;7.03;;;13.40;99.90;;;;;;4995305;28;20241;-71
2023/04/22 15:15:14;;;;;;;9.37;5.53;;;13.50;99.90;;;;;;4994699;28;20798;-71
2023/04/22 15:17:42;;;;;;;7.87;4.90;;;13.80;99.90;;;;;;4995126;28;20261;-71
2023/04/22 15:20:09;;;;;;;7.87;5.20;;;14.10;99.90;;;;;;4992217;28;20552;-70
2023/04/22 15:22:36;;;;;;;7.27;4.23;;;14.50;99.90;;;;;;4995547;28;20337;-70
2023/04/22 15:25:05;;;;;;;5.70;3.97;;;14.70;99.90;;;;;;4994912;28;20269;-69
2023/04/22 15:27:32;;;;;;;6.50;3.80;;;14.70;99.90;;;;;;4994940;28;20218;-69
2023/04/22 15:29:59;;;;;;;5.53;3.60;;;14.80;99.90;;;;;;4995008;28;20296;-71
2023/04/22 15:32:26;;;;;;;5.43;3.47;;;14.90;99.90;;;;;;4995674;28;20294;-69
2023/04/22 15:34:53;;;;;;;6.23;3.87;;;14.50;99.90;;;;;;4995592;28;20707;-69
2023/04/22 15:37:20;;;;;;;5.37;3.97;;;14.50;99.90;;;;;;4995507;28;20248;-70
2023/04/22 15:39:46;;;;;;;5.30;3.57;;;14.10;99.90;;;;;;4995652;28;20210;-72
2023/04/22 15:42:15;;;;;;;6.43;3.70;;;13.80;99.90;;;;;;4995214;28;20672;-70
2023/04/22 15:44:42;;;;;;;6.60;4.27;;;13.70;99.90;;;;;;4995068;28;20238;-70
2023/04/22 15:47:09;;;;;;;7.00;4.40;;;13.70;99.90;;;;;;4995405;28;20266;-70
2023/04/22 15:49:36;;;;;;;7.63;5.13;;;13.60;99.90;;;;;;4995371;28;20206;-69
2023/04/22 15:52:04;;;;;;;6.50;4.10;;;13.30;99.90;;;;;;4995092;28;20210;-70
2023/04/22 15:54:31;;;;;;;8.57;4.50;;;13.00;99.90;;;;;;4994963;28;20722;-69
2023/04/22 15:56:57;;;;;;;7.23;4.70;;;13.00;99.90;;;;;;4995045;28;20313;-70
2023/04/22 15:59:26;;;;;;;8.87;5.67;;;13.00;99.90;;;;;;4995007;28;20293;-71
2023/04/22 16:01:53;;;;;;;8.20;5.20;;;13.10;99.90;;;;;;4995062;28;20639;-69
2023/04/22 16:04:20;;;;;;;7.97;5.03;;;13.00;99.90;;;;;;4994889;28;20338;-71
2023/04/22 16:06:46;;;;;;;8.80;5.33;;;13.20;99.90;;;;;;4994743;28;20242;-69
2023/04/22 16:09:14;;;;;;;11.27;6.70;;;13.50;99.90;;;;;;4994792;28;20301;-71
2023/04/22 16:11:41;;;;;;;8.20;4.97;;;13.60;99.90;;;;;;4994880;28;20206;-71
2023/04/22 16:14:09;;;;;;;8.67;4.63;;;13.80;99.90;;;;;;4994859;28;20321;-70
2023/04/22 16:16:39;;;;;;;8.13;4.80;;;13.60;99.90;;;;;;4994925;28;20218;-69
2023/04/22 16:19:05;;;;;;;7.83;4.60;;;13.60;99.90;;;;;;4994234;28;20285;-71
2023/04/22 16:21:32;;;;;;;7.90;4.17;;;13.50;99.90;;;;;;4994831;28;20293;-70
2023/04/22 16:23:59;;;;;;;8.27;4.70;;;13.30;99.90;;;;;;4994680;28;20313;-71
2023/04/22 16:26:26;;;;;;;7.77;4.77;;;13.10;99.90;;;;;;4994471;28;20334;-71
2023/04/22 16:28:54;;;;;;;7.20;4.33;;;13.00;99.90;;;;;;4994683;28;20297;-71
2023/04/22 16:31:22;;;;;;;8.33;5.00;;;13.10;99.90;;;;;;4994583;28;20206;-71
2023/04/22 16:33:50;;;;;;;8.00;4.77;;;13.20;99.90;;;;;;4994739;28;20206;-70
2023/04/22 16:36:17;;;;;;;6.90;4.37;;;13.20;99.90;;;;;;4994245;28;20289;-69
2023/04/22 16:38:44;;;;;;;8.63;4.80;;;13.20;99.90;;;;;;4994665;28;20302;-69
2023/04/22 16:41:13;;;;;;;8.07;5.10;;;13.10;99.90;;;;;;4994607;28;20206;-70
2023/04/22 16:43:40;;;;;;;6.67;4.10;;;12.90;99.90;;;;;;4994258;28;20209;-70
2023/04/22 16:46:07;;;;;;;6.40;4.40;;;12.80;99.90;;;;;;4994076;28;20230;-69
2023/04/22 16:48:34;;;;;;;8.00;4.17;;;12.90;99.90;;;;;;4994058;28;20202;-69
2023/04/22 16:51:03;;;;;;;12.17;4.40;;;12.70;99.90;;;;;;4993806;28;20737;-70
2023/04/22 16:53:30;;;;;;;7.33;4.00;;;12.50;99.90;;;;;;4993983;28;20238;-70
2023/04/22 16:55:57;;;;;;;6.43;3.77;;;12.50;99.90;;;;;;4993949;28;20230;-68
2023/04/22 16:58:24;;;;;;;7.07;4.70;;;12.40;99.90;;;;;;4993915;28;20246;-69
2023/04/22 17:00:51;;;;;;;6.30;3.97;;;12.50;99.90;;;;;;4993720;28;20551;-70
2023/04/22 17:03:19;;;;;;;5.83;3.87;;;12.60;99.90;;;;;;4993894;28;20310;-70
2023/04/22 17:05:46;;;;;;;7.80;4.47;;;12.70;99.90;;;;;;4993759;28;20238;-71
2023/04/22 17:08:15;;;;;;;8.70;4.23;;;12.70;99.90;;;;;;4994047;28;20241;-69
2023/04/22 17:10:43;;;;;;;7.30;4.47;;;12.60;99.90;;;;;;4993902;28;20246;-70
2023/04/22 17:13:12;;;;;;;7.27;4.40;;;12.60;99.90;;;;;;4993739;28;20667;-69
2023/04/22 17:15:38;;;;;;;6.87;3.90;;;12.80;99.90;;;;;;4993690;28;20237;-70
2023/04/22 17:18:06;;;;;;;5.97;4.23;;;12.70;99.90;;;;;;4993651;28;20733;-69
2023/04/22 17:20:33;;;;;;;7.07;4.43;;;12.60;99.90;;;;;;4993955;28;20293;-69
2023/04/22 17:23:01;;;;;;;11.93;5.93;;;12.60;99.90;;;;;;4993807;28;20210;-69
2023/04/22 17:25:29;;;;;;;7.60;4.37;;;12.70;99.90;;;;;;4993381;28;20317;-69
2023/04/22 17:27:56;;;;;;;6.60;4.37;;;12.80;99.90;;;;;;4993670;28;20246;-70
2023/04/22 17:30:23;;;;;;;8.00;4.30;;;12.70;99.90;;;;;;4993463;28;20218;-69
2023/04/22 17:32:50;;;;;;;8.00;4.60;;;12.60;99.90;;;;;;4993801;28;20238;-71
2023/04/22 17:35:17;;;;;;;8.37;4.77;;;12.50;99.90;;;;;;4993483;28;20266;-69
2023/04/22 17:37:44;;;;;;;7.53;4.80;;;12.50;99.90;;;;;;4993486;28;20733;-71
2023/04/22 17:40:11;;;;;;;6.80;4.23;;;12.40;99.90;;;;;;4993713;28;20261;-71
2023/04/22 17:42:40;;;;;;;10.33;5.20;;;12.20;99.90;;;;;;4993359;28;20213;-72
2023/04/22 17:45:08;;;;;;;8.77;5.20;;;12.20;99.90;;;;;;4993409;28;20253;-69
2023/04/22 17:47:35;;;;;;;8.73;5.17;;;12.30;99.90;;;;;;4993439;28;20293;-69
2023/04/22 17:50:02;;;;;;;9.60;5.27;;;12.30;99.90;;;;;;4993391;28;20628;-70
2023/04/22 17:52:29;;;;;;;14.30;6.53;;;12.20;99.90;;;;;;4993042;28;20320;-69
2023/04/22 17:54:56;;;;;;;14.37;6.47;;;12.20;99.90;;;;;;4993291;28;20273;-70
2023/04/22 17:57:23;;;;;;;9.80;5.47;;;12.20;99.90;;;;;;4993112;28;20218;-69
2023/04/22 17:59:51;;;;;;;10.47;5.60;;;12.20;99.90;;;;;;4992926;28;20249;-70
2023/04/22 18:02:19;;;;;;;11.17;6.13;;;12.10;99.90;;;;;;4993316;28;20261;-70
2023/04/22 18:04:46;;;;;;;9.43;5.53;;;12.00;99.90;;;;;;4993142;28;20715;-69
2023/04/22 18:07:13;;;;;;;11.73;5.90;;;11.90;99.90;;;;;;4993167;28;20273;-70
2023/04/22 18:09:40;;;;;;;10.83;5.80;;;11.90;99.90;;;;;;4993246;28;20253;-72
2023/04/22 18:12:07;;;;;;;9.73;5.70;;;11.90;99.90;;;;;;4993222;28;20678;-69
2023/04/22 18:14:34;;;;;;;9.00;6.23;;;11.90;99.90;;;;;;4993030;28;20268;-71
2023/04/22 18:17:02;;;;;;;11.57;5.63;;;11.90;99.90;;;;;;4993308;28;20234;-70
2023/04/22 18:19:29;;;;;;;8.13;5.50;;;11.80;99.90;;;;;;4992818;28;20664;-71
2023/04/22 18:21:56;;;;;;;8.87;6.10;;;11.70;99.90;;;;;;4993141;28;20302;-70
2023/04/22 18:24:23;;;;;;;8.90;5.20;;;11.70;99.90;;;;;;4992868;28;20313;-70
2023/04/22 18:26:51;;;;;;;8.47;5.80;;;11.60;99.90;;;;;;4992818;28;20234;-69
2023/04/22 18:29:18;;;;;;;7.63;4.97;;;11.60;99.90;;;;;;4992668;28;20217;-70
2023/04/22 18:31:45;;;;;;;9.23;5.33;;;11.60;99.90;;;;;;4992952;28;20323;-72
2023/04/22 18:34:14;;;;;;;10.23;6.37;;;11.60;99.90;;;;;;4992899;28;20258;-70
2023/04/22 18:36:41;;;;;;;12.33;6.43;;;11.60;99.90;;;;;;4992909;28;20214;-70
2023/04/22 18:39:08;;;;;;;10.10;5.90;;;11.50;99.90;;;;;;4992774;28;20242;-69
2023/04/22 18:41:37;;;;;;;7.80;5.13;;;11.50;99.90;;;;;;4993775;28;20679;-70
2023/04/22 18:44:04;;;;;;;8.07;5.17;;;11.30;99.90;;;;;;4996449;28;20228;-69
2023/04/22 18:46:31;;;;;;;9.27;5.50;;;11.30;99.90;;;;;;4996601;28;20256;-70
2023/04/22 18:48:58;;;;;;;10.00;5.83;;;11.20;99.90;;;;;;4996380;28;20242;-70
2023/04/22 18:51:26;;;;;;;12.03;6.17;;;11.20;99.90;;;;;;4996450;28;20730;-71
2023/04/22 18:56:28;;;;;;;9.50;5.23;;;11.00;99.90;;;;;;4955748;29;20271;-71
2023/04/22 18:58:55;;;;;;;7.90;4.80;;;10.90;99.90;;;;;;4957171;29;20346;-71
2023/04/22 19:01:22;;;;;;;8.67;4.90;;;10.90;99.90;;;;;;4957085;29;20247;-71
2023/04/22 19:03:49;;;;;;;7.73;5.30;;;10.80;99.90;;;;;;4957262;28;20295;-72
2023/04/22 19:06:16;;;;;;;10.47;5.20;;;10.80;99.90;;;;;;4957066;29;20238;-72
2023/04/22 19:08:45;;;;;;;9.40;5.13;;;10.70;99.90;;;;;;4957256;29;20212;-71
2023/04/22 19:11:12;;;;;;;9.63;5.30;;;10.70;99.90;;;;;;4957209;29;20208;-72
2023/04/22 19:13:38;;;;;;;14.33;5.77;;;10.70;99.90;;;;;;4956996;29;20212;-72
2023/04/22 19:16:06;;;;;;;12.50;5.20;;;10.60;99.90;;;;;;4956996;28;20716;-72
2023/04/22 19:18:33;;;;;;;12.67;7.23;;;10.60;99.90;;;;;;4956959;29;20243;-71
2023/04/22 19:21:00;;;;;;;12.03;6.43;;;10.60;99.90;;;;;;4957161;29;20304;-72
2023/04/22 19:23:27;;;;;;;12.00;6.50;;;10.60;99.90;;;;;;4957163;29;20243;-73
2023/04/22 19:25:55;;;;;;;11.40;6.47;;;10.50;99.90;;;;;;4956811;28;20266;-75
2023/04/22 19:28:22;;;;;;;11.20;6.70;;;10.40;99.90;;;;;;4956629;29;20589;-74
2023/04/22 19:30:49;;;;;;;13.27;7.40;;;10.40;99.90;;;;;;4956940;29;20270;-75
2023/04/22 19:33:16;;;;;;;11.63;6.70;;;10.30;99.90;;;;;;4956924;29;20236;-74
2023/04/22 19:35:43;;;;;;;12.07;6.73;;;10.40;99.90;;;;;;4956823;28;20658;-75
2023/04/22 19:38:11;;;;;;;16.77;8.10;;;10.40;99.90;;;;;;4956812;29;20294;-75
2023/04/22 19:40:38;;;;;;;15.40;9.27;;;10.40;99.90;;;;;;4956768;29;20243;-74
2023/04/22 19:43:06;;;;;;;13.83;8.13;;;10.30;99.90;;;;;;4956530;29;20295;-74
2023/04/22 19:45:33;;;;;;;15.83;8.50;;;10.30;99.90;;;;;;4956442;28;20264;-75